Time;durP1;ratioP1;P1;durP2;ratioP2;P2;SDS_P1;SDS_P2;PMS_P1;PMS_P2;Temp;Humidity;BMP_temperature;BMP_pressure;BME280_temperature;BME280_humidity;BME280_pressure;Samples;Min_cycle;Max_cycle;Signal;HPM_P1;HPM_P2
2021/12/09 00:00:17;;;;;;;30.50;17.52;;;;;;;;;;4823562;29;20066;-68
2021/12/09 00:02:43;;;;;;;27.83;17.10;;;;;;;;;;4832945;29;20398;-68
2021/12/09 00:05:12;;;;;;;29.70;18.17;;;;;;;;;;4841318;29;20482;-67
2021/12/09 00:07:38;;;;;;;32.35;18.63;;;;;;;;;;4840608;29;20079;-65
2021/12/09 00:10:07;;;;;;;33.80;18.83;;;;;;;;;;4841265;29;20114;-65
2021/12/09 00:12:33;;;;;;;24.75;13.30;;;;;;;;;;4841566;29;20129;-66
2021/12/09 00:14:59;;;;;;;19.23;11.93;;;;;;;;;;4840802;29;20067;-65
2021/12/09 00:17:25;;;;;;;20.52;12.98;;;;;;;;;;4840610;29;20045;-66
2021/12/09 00:19:51;;;;;;;19.63;11.50;;;;;;;;;;4836313;29;20038;-65
2021/12/09 00:22:17;;;;;;;33.17;13.68;;;;;;;;;;4840542;29;20041;-66
2021/12/09 00:24:43;;;;;;;43.17;19.88;;;;;;;;;;4840455;29;20109;-68
2021/12/09 00:27:09;;;;;;;42.58;21.70;;;;;;;;;;4840950;29;20041;-66
2021/12/09 00:29:35;;;;;;;45.28;22.83;;;;;;;;;;4840883;29;20090;-66
2021/12/09 00:32:00;;;;;;;44.92;23.30;;;;;;;;;;4840410;29;20042;-65
2021/12/09 00:34:32;;;;;;;44.17;22.17;;;;;;;;;;4841531;29;20370;-65
2021/12/09 00:37:14;;;;;;;46.67;21.52;;;;;;;;;;4841298;29;20632;-65
2021/12/09 00:39:41;;;;;;;43.90;21.38;;;;;;;;;;4840551;29;20053;-65
2021/12/09 00:42:09;;;;;;;43.90;19.85;;;;;;;;;;4841036;29;20030;-66
2021/12/09 00:44:35;;;;;;;43.08;20.77;;;;;;;;;;4839345;29;20034;-66
2021/12/09 00:47:01;;;;;;;36.03;17.90;;;;;;;;;;4839466;29;20034;-66
2021/12/09 00:49:30;;;;;;;30.55;15.90;;;;;;;;;;4839662;29;20109;-66
2021/12/09 00:51:59;;;;;;;24.70;12.82;;;;;;;;;;4840769;29;20049;-65
2021/12/09 00:54:25;;;;;;;24.88;13.30;;;;;;;;;;4840963;29;20401;-66
2021/12/09 00:56:51;;;;;;;25.95;13.55;;;;;;;;;;4840654;29;20033;-66
2021/12/09 00:59:17;;;;;;;19.77;12.00;;;;;;;;;;4840316;29;20038;-65
2021/12/09 01:01:43;;;;;;;28.52;14.82;;;;;;;;;;4840142;29;20026;-65
2021/12/09 01:04:09;;;;;;;26.45;15.35;;;;;;;;;;4840759;29;20497;-66
2021/12/09 01:06:34;;;;;;;29.85;15.88;;;;;;;;;;4840811;29;20053;-66
2021/12/09 01:09:02;;;;;;;26.77;14.63;;;;;;;;;;4840404;29;20108;-66
2021/12/09 01:11:28;;;;;;;25.60;14.35;;;;;;;;;;4840497;29;20064;-65
2021/12/09 01:13:53;;;;;;;28.33;15.32;;;;;;;;;;4840365;29;20058;-66
2021/12/09 01:16:19;;;;;;;31.35;15.98;;;;;;;;;;4841787;29;20045;-65
2021/12/09 01:18:45;;;;;;;26.48;13.88;;;;;;;;;;4843943;29;20111;-65
2021/12/09 01:21:12;;;;;;;24.95;12.02;;;;;;;;;;4843915;29;20078;-64
2021/12/09 01:23:38;;;;;;;21.52;12.00;;;;;;;;;;4843900;29;20106;-65
2021/12/09 01:26:06;;;;;;;22.38;11.73;;;;;;;;;;4843917;29;20086;-65
2021/12/09 01:28:41;;;;;;;30.25;12.98;;;;;;;;;;4843732;29;20383;-64
2021/12/09 01:31:08;;;;;;;19.30;11.52;;;;;;;;;;4844112;29;20489;-66
2021/12/09 01:33:35;;;;;;;16.25;10.57;;;;;;;;;;4844150;29;20466;-66
2021/12/09 01:36:03;;;;;;;20.20;11.10;;;;;;;;;;4843973;29;20423;-66
2021/12/09 01:38:31;;;;;;;18.27;10.50;;;;;;;;;;4843803;29;20045;-66
2021/12/09 01:40:58;;;;;;;24.58;12.02;;;;;;;;;;4843631;29;20045;-65
2021/12/09 01:43:24;;;;;;;20.38;10.27;;;;;;;;;;4842886;29;20030;-65
2021/12/09 01:46:09;;;;;;;18.77;10.75;;;;;;;;;;4843212;29;20046;-65
2021/12/09 01:48:36;;;;;;;17.98;9.52;;;;;;;;;;4837573;29;20041;-65
2021/12/09 01:51:03;;;;;;;17.65;10.20;;;;;;;;;;4843546;29;20034;-65
2021/12/09 01:53:29;;;;;;;20.95;10.25;;;;;;;;;;4842618;29;20121;-66
2021/12/09 01:55:58;;;;;;;18.35;10.23;;;;;;;;;;4843359;29;20112;-65
2021/12/09 01:58:24;;;;;;;17.58;9.10;;;;;;;;;;4843586;29;20058;-65
2021/12/09 02:00:50;;;;;;;14.25;8.85;;;;;;;;;;4843783;29;20072;-66
2021/12/09 02:03:16;;;;;;;14.90;9.18;;;;;;;;;;4843357;29;20042;-65
2021/12/09 02:05:42;;;;;;;15.20;9.10;;;;;;;;;;4843611;29;20033;-66
2021/12/09 02:08:09;;;;;;;14.50;8.95;;;;;;;;;;4843767;29;20124;-65
2021/12/09 02:10:35;;;;;;;13.00;8.50;;;;;;;;;;4843729;29;20521;-65
2021/12/09 02:13:01;;;;;;;15.43;8.68;;;;;;;;;;4843531;29;20065;-66
2021/12/09 02:15:27;;;;;;;14.85;9.00;;;;;;;;;;4843596;29;20062;-65
2021/12/09 02:17:53;;;;;;;17.30;10.05;;;;;;;;;;4843642;29;20043;-64
2021/12/09 02:20:20;;;;;;;18.25;10.98;;;;;;;;;;4843759;29;20030;-65
2021/12/09 02:22:46;;;;;;;17.42;10.95;;;;;;;;;;4844027;29;20038;-64
2021/12/09 02:25:16;;;;;;;22.50;12.43;;;;;;;;;;4843659;29;20034;-65
2021/12/09 02:27:42;;;;;;;23.23;11.75;;;;;;;;;;4841947;29;20413;-66
2021/12/09 02:30:09;;;;;;;15.77;9.55;;;;;;;;;;4843539;29;20030;-66
2021/12/09 02:32:35;;;;;;;15.07;8.95;;;;;;;;;;4843498;29;20050;-66
2021/12/09 02:35:01;;;;;;;15.48;9.07;;;;;;;;;;4843069;29;20513;-66
2021/12/09 02:37:27;;;;;;;15.27;9.05;;;;;;;;;;4843384;29;20094;-65
2021/12/09 02:39:55;;;;;;;18.30;9.20;;;;;;;;;;4843211;29;20029;-65
2021/12/09 02:42:24;;;;;;;17.27;9.48;;;;;;;;;;4843603;29;20058;-65
2021/12/09 02:44:50;;;;;;;22.90;9.18;;;;;;;;;;4843363;29;20122;-65
2021/12/09 02:47:16;;;;;;;14.57;8.98;;;;;;;;;;4843097;29;20042;-65
2021/12/09 02:49:42;;;;;;;17.42;9.82;;;;;;;;;;4843329;29;20116;-64
2021/12/09 02:52:08;;;;;;;21.10;10.77;;;;;;;;;;4843362;29;20125;-65
2021/12/09 02:54:34;;;;;;;15.57;9.18;;;;;;;;;;4843473;29;20041;-66
2021/12/09 02:57:04;;;;;;;15.18;9.98;;;;;;;;;;4843278;29;20113;-64
2021/12/09 02:59:32;;;;;;;18.35;8.98;;;;;;;;;;4843137;29;20044;-65
2021/12/09 03:02:00;;;;;;;13.70;8.20;;;;;;;;;;4842834;29;20103;-66
2021/12/09 03:04:37;;;;;;;17.17;9.10;;;;;;;;;;4842893;29;20101;-65
2021/12/09 03:07:06;;;;;;;13.25;9.55;;;;;;;;;;4842651;29;20045;-64
2021/12/09 03:09:32;;;;;;;20.67;10.43;;;;;;;;;;4843082;29;20034;-65
2021/12/09 03:12:04;;;;;;;23.85;10.95;;;;;;;;;;4841637;29;20045;-65
2021/12/09 03:14:30;;;;;;;18.98;10.35;;;;;;;;;;4841650;29;20041;-65
2021/12/09 03:16:56;;;;;;;15.20;9.60;;;;;;;;;;4842814;29;20435;-65
2021/12/09 03:19:21;;;;;;;15.13;9.02;;;;;;;;;;4842496;29;20034;-65
2021/12/09 03:21:48;;;;;;;16.60;9.32;;;;;;;;;;4842818;29;20033;-65
2021/12/09 03:24:18;;;;;;;16.77;9.02;;;;;;;;;;4842525;29;20038;-65
2021/12/09 03:26:54;;;;;;;15.50;9.25;;;;;;;;;;4842284;29;20038;-65
2021/12/09 03:29:21;;;;;;;19.42;9.88;;;;;;;;;;4842504;29;20105;-66
2021/12/09 03:31:49;;;;;;;20.98;10.13;;;;;;;;;;4842480;29;20026;-65
2021/12/09 03:34:16;;;;;;;20.30;9.82;;;;;;;;;;4842444;29;20117;-65
2021/12/09 03:36:44;;;;;;;15.80;9.48;;;;;;;;;;4841405;29;20486;-65
2021/12/09 03:39:16;;;;;;;21.38;11.05;;;;;;;;;;4841905;29;20057;-64
2021/12/09 03:41:42;;;;;;;19.42;10.27;;;;;;;;;;4842357;29;20050;-65
2021/12/09 03:44:08;;;;;;;17.40;10.15;;;;;;;;;;4842380;29;20030;-66
2021/12/09 03:46:34;;;;;;;23.10;11.55;;;;;;;;;;4842219;29;20042;-66
2021/12/09 03:49:01;;;;;;;27.80;11.52;;;;;;;;;;4841710;29;20034;-65
2021/12/09 03:51:27;;;;;;;23.38;11.63;;;;;;;;;;4842271;29;20038;-65
2021/12/09 03:53:53;;;;;;;23.00;12.38;;;;;;;;;;4841925;29;20033;-66
2021/12/09 03:56:20;;;;;;;23.98;11.93;;;;;;;;;;4841878;29;20038;-65
2021/12/09 03:58:46;;;;;;;21.92;11.50;;;;;;;;;;4841327;29;20508;-66
2021/12/09 04:01:11;;;;;;;17.67;10.90;;;;;;;;;;4841076;29;20054;-65
2021/12/09 04:03:37;;;;;;;18.35;11.23;;;;;;;;;;4840794;29;20046;-65
2021/12/09 04:06:04;;;;;;;18.98;11.50;;;;;;;;;;4841440;29;20034;-65
2021/12/09 04:08:29;;;;;;;20.10;10.25;;;;;;;;;;4841714;29;20079;-66
2021/12/09 04:10:56;;;;;;;20.10;11.27;;;;;;;;;;4841833;29;20038;-65
2021/12/09 04:13:22;;;;;;;18.65;11.60;;;;;;;;;;4841863;29;20108;-65
2021/12/09 04:15:48;;;;;;;21.05;11.40;;;;;;;;;;4841889;29;20042;-65
2021/12/09 04:18:14;;;;;;;20.25;11.38;;;;;;;;;;4841353;29;20113;-65
2021/12/09 04:20:40;;;;;;;20.08;11.02;;;;;;;;;;4840168;29;20041;-66
2021/12/09 04:23:06;;;;;;;17.83;10.30;;;;;;;;;;4841371;29;20473;-66
2021/12/09 04:25:33;;;;;;;22.17;11.05;;;;;;;;;;4841439;29;20038;-66
2021/12/09 04:27:59;;;;;;;21.65;11.70;;;;;;;;;;4841542;29;20029;-66
2021/12/09 04:30:29;;;;;;;34.42;13.48;;;;;;;;;;4841278;29;20120;-64
2021/12/09 04:32:55;;;;;;;41.72;14.05;;;;;;;;;;4841087;29;20079;-66
2021/12/09 04:35:22;;;;;;;26.85;12.32;;;;;;;;;;4841554;29;20114;-66
2021/12/09 04:37:48;;;;;;;20.92;11.48;;;;;;;;;;4841037;29;20034;-66
2021/12/09 04:40:16;;;;;;;24.35;13.55;;;;;;;;;;4841282;29;20034;-65
2021/12/09 04:42:43;;;;;;;21.75;12.90;;;;;;;;;;4841245;29;20521;-65
2021/12/09 04:45:10;;;;;;;33.33;12.50;;;;;;;;;;4841019;29;20034;-65
2021/12/09 04:47:36;;;;;;;29.63;13.48;;;;;;;;;;4840395;29;20052;-65
2021/12/09 04:50:06;;;;;;;23.30;12.68;;;;;;;;;;4840625;29;20040;-65
2021/12/09 04:52:32;;;;;;;31.63;13.88;;;;;;;;;;4841024;29;20056;-66
2021/12/09 04:54:58;;;;;;;25.38;12.80;;;;;;;;;;4840978;29;20469;-65
2021/12/09 04:57:24;;;;;;;24.40;11.75;;;;;;;;;;4840799;29;20041;-64
2021/12/09 04:59:51;;;;;;;30.45;14.30;;;;;;;;;;4839964;29;20538;-65
2021/12/09 05:02:36;;;;;;;32.70;14.13;;;;;;;;;;4840084;29;20049;-65
2021/12/09 05:05:03;;;;;;;28.15;12.55;;;;;;;;;;4840511;29;20106;-65
2021/12/09 05:07:29;;;;;;;25.02;13.05;;;;;;;;;;4841178;29;20030;-66
2021/12/09 05:09:55;;;;;;;24.80;12.05;;;;;;;;;;4841354;29;20516;-64
2021/12/09 05:12:21;;;;;;;25.95;14.27;;;;;;;;;;4841492;29;20018;-65
2021/12/09 05:14:47;;;;;;;21.17;12.82;;;;;;;;;;4841862;29;20033;-66
2021/12/09 05:17:17;;;;;;;31.88;14.27;;;;;;;;;;4841608;29;20066;-65
2021/12/09 05:19:44;;;;;;;22.25;11.95;;;;;;;;;;4841426;29;20386;-65
2021/12/09 05:22:11;;;;;;;24.00;12.95;;;;;;;;;;4840393;29;20062;-66
2021/12/09 05:24:37;;;;;;;26.67;14.20;;;;;;;;;;4841737;29;20108;-65
2021/12/09 05:27:05;;;;;;;20.45;12.93;;;;;;;;;;4841754;29;20026;-65
2021/12/09 05:29:42;;;;;;;27.05;13.75;;;;;;;;;;4841557;29;20061;-66
2021/12/09 05:32:11;;;;;;;26.40;14.45;;;;;;;;;;4841831;29;20401;-65
2021/12/09 05:34:41;;;;;;;32.28;15.15;;;;;;;;;;4841233;29;20026;-65
2021/12/09 05:37:09;;;;;;;28.10;15.18;;;;;;;;;;4840959;29;20030;-66
2021/12/09 05:39:39;;;;;;;36.75;16.33;;;;;;;;;;4841459;29;20191;-65
2021/12/09 05:42:07;;;;;;;36.53;17.40;;;;;;;;;;4840289;29;20136;-65
2021/12/09 05:44:34;;;;;;;37.15;16.15;;;;;;;;;;4842454;29;20417;-71
2021/12/09 05:47:02;;;;;;;31.23;15.75;;;;;;;;;;4836381;29;20034;-71
2021/12/09 05:49:29;;;;;;;36.05;16.98;;;;;;;;;;4823710;29;20392;-71
2021/12/09 05:51:56;;;;;;;43.78;20.73;;;;;;;;;;4823761;29;20075;-71
2021/12/09 05:54:21;;;;;;;57.30;19.52;;;;;;;;;;4831650;29;20030;-72
2021/12/09 05:56:47;;;;;;;46.50;18.70;;;;;;;;;;4841077;29;20461;-72
2021/12/09 05:59:13;;;;;;;40.00;18.20;;;;;;;;;;4841161;29;20094;-70
2021/12/09 06:01:40;;;;;;;47.50;18.08;;;;;;;;;;4841640;29;20086;-73
2021/12/09 06:04:07;;;;;;;36.85;16.17;;;;;;;;;;4844039;29;20042;-71
2021/12/09 06:06:34;;;;;;;38.92;18.98;;;;;;;;;;4843937;29;20038;-71
2021/12/09 06:09:00;;;;;;;37.20;17.95;;;;;;;;;;4843995;29;20109;-72
2021/12/09 06:11:26;;;;;;;28.45;15.88;;;;;;;;;;4844009;29;20134;-70
2021/12/09 06:13:53;;;;;;;27.35;15.68;;;;;;;;;;4844104;29;20106;-72
2021/12/09 06:16:19;;;;;;;31.30;16.02;;;;;;;;;;4844433;29;20554;-71
2021/12/09 06:18:45;;;;;;;35.50;15.90;;;;;;;;;;4843650;29;20034;-71
2021/12/09 06:21:11;;;;;;;41.17;16.10;;;;;;;;;;4844016;29;20045;-70
2021/12/09 06:23:37;;;;;;;31.65;15.60;;;;;;;;;;4844126;29;20050;-72
2021/12/09 06:26:07;;;;;;;44.67;19.55;;;;;;;;;;4843789;29;20062;-72
2021/12/09 06:28:34;;;;;;;39.42;17.13;;;;;;;;;;4844298;29;20106;-71
2021/12/09 06:31:00;;;;;;;39.47;18.95;;;;;;;;;;4844258;29;20034;-71
2021/12/09 06:33:25;;;;;;;30.50;16.55;;;;;;;;;;4844098;29;20026;-70
2021/12/09 06:35:51;;;;;;;36.80;16.23;;;;;;;;;;4843704;29;20458;-72
2021/12/09 06:38:17;;;;;;;43.35;16.85;;;;;;;;;;4843696;29;20033;-71
2021/12/09 06:40:45;;;;;;;34.85;14.25;;;;;;;;;;4843795;29;20078;-72
2021/12/09 06:43:11;;;;;;;27.42;16.40;;;;;;;;;;4844069;29;20022;-71
2021/12/09 06:45:38;;;;;;;47.13;16.38;;;;;;;;;;4843478;29;20402;-70
2021/12/09 06:48:04;;;;;;;37.70;16.20;;;;;;;;;;4842464;29;20097;-72
2021/12/09 06:50:30;;;;;;;29.75;15.55;;;;;;;;;;4843998;29;20041;-71
2021/12/09 06:52:56;;;;;;;57.22;18.30;;;;;;;;;;4843609;29;20036;-71
2021/12/09 06:55:22;;;;;;;34.92;17.02;;;;;;;;;;4839609;29;20116;-74
2021/12/09 06:57:49;;;;;;;28.60;15.32;;;;;;;;;;4843649;29;20449;-72
2021/12/09 07:00:22;;;;;;;22.50;13.73;;;;;;;;;;4843608;29;20052;-71
2021/12/09 07:02:49;;;;;;;26.83;15.77;;;;;;;;;;4843105;29;20053;-70
2021/12/09 07:05:16;;;;;;;28.80;17.17;;;;;;;;;;4843103;29;20037;-72
2021/12/09 07:07:42;;;;;;;27.00;17.10;;;;;;;;;;4842642;29;20534;-71
2021/12/09 07:10:10;;;;;;;35.58;15.93;;;;;;;;;;4843081;29;20030;-74
2021/12/09 07:12:38;;;;;;;31.95;16.83;;;;;;;;;;4837727;29;20041;-71
2021/12/09 07:15:06;;;;;;;32.13;16.23;;;;;;;;;;4842389;29;20036;-70
2021/12/09 07:17:32;;;;;;;29.58;14.98;;;;;;;;;;4842971;29;20501;-72
2021/12/09 07:19:57;;;;;;;28.33;15.73;;;;;;;;;;4841240;29;20057;-71
2021/12/09 07:22:23;;;;;;;29.20;15.13;;;;;;;;;;4838488;29;20410;-72
2021/12/09 07:24:49;;;;;;;38.28;15.25;;;;;;;;;;4824736;29;20023;-71
2021/12/09 07:27:15;;;;;;;25.20;13.95;;;;;;;;;;4824528;29;20141;-73
2021/12/09 07:29:41;;;;;;;31.98;15.70;;;;;;;;;;4824528;29;20162;-71
2021/12/09 07:32:07;;;;;;;26.67;16.15;;;;;;;;;;4824178;29;20125;-74
2021/12/09 07:34:33;;;;;;;34.63;15.98;;;;;;;;;;4824843;29;20046;-72
2021/12/09 07:37:03;;;;;;;28.80;18.02;;;;;;;;;;4824558;29;20042;-70
2021/12/09 07:39:30;;;;;;;28.67;16.92;;;;;;;;;;4826367;29;20493;-70
2021/12/09 07:41:56;;;;;;;24.42;14.85;;;;;;;;;;4832385;29;20022;-71
2021/12/09 07:44:23;;;;;;;24.45;13.70;;;;;;;;;;4826428;29;20037;-70
2021/12/09 07:46:50;;;;;;;22.13;12.68;;;;;;;;;;4839313;29;20121;-69
2021/12/09 07:49:16;;;;;;;21.58;14.00;;;;;;;;;;4842319;29;20038;-70
2021/12/09 07:51:42;;;;;;;26.92;13.43;;;;;;;;;;4842160;29;20375;-73
2021/12/09 07:54:08;;;;;;;20.75;12.27;;;;;;;;;;4838288;29;20351;-71
2021/12/09 07:56:33;;;;;;;42.42;13.57;;;;;;;;;;4842393;29;20070;-71
2021/12/09 07:59:00;;;;;;;15.77;10.77;;;;;;;;;;4838532;29;20079;-71
2021/12/09 08:01:26;;;;;;;27.42;12.63;;;;;;;;;;4837670;29;21729;-74
2021/12/09 08:03:52;;;;;;;17.48;10.25;;;;;;;;;;4840589;29;20046;-72
2021/12/09 08:06:17;;;;;;;13.95;8.13;;;;;;;;;;4841679;29;20038;-70
2021/12/09 08:08:43;;;;;;;13.82;8.57;;;;;;;;;;4841851;29;20119;-70
2021/12/09 08:11:10;;;;;;;14.23;8.70;;;;;;;;;;4841634;29;20038;-71
2021/12/09 08:13:36;;;;;;;21.92;9.15;;;;;;;;;;4841938;29;20034;-70
2021/12/09 08:16:01;;;;;;;15.20;8.73;;;;;;;;;;4834184;29;20057;-70
2021/12/09 08:18:31;;;;;;;15.45;8.27;;;;;;;;;;4823528;29;20057;-72
2021/12/09 08:20:59;;;;;;;14.48;8.88;;;;;;;;;;4823746;29;20052;-71
2021/12/09 08:23:26;;;;;;;18.52;9.82;;;;;;;;;;4834702;29;20521;-71
2021/12/09 08:25:53;;;;;;;20.63;9.02;;;;;;;;;;4840932;29;20030;-71
2021/12/09 08:28:19;;;;;;;25.65;10.02;;;;;;;;;;4841728;29;20102;-74
2021/12/09 08:30:46;;;;;;;15.60;10.05;;;;;;;;;;4841579;29;20509;-73
2021/12/09 08:33:12;;;;;;;20.40;10.73;;;;;;;;;;4839854;29;20034;-71
2021/12/09 08:35:39;;;;;;;23.92;12.55;;;;;;;;;;4841069;29;20477;-72
2021/12/09 08:38:07;;;;;;;20.73;11.82;;;;;;;;;;4841460;29;20537;-71
2021/12/09 08:40:34;;;;;;;21.73;12.35;;;;;;;;;;4840972;29;20367;-70
2021/12/09 08:43:00;;;;;;;19.35;11.88;;;;;;;;;;4829530;29;20461;-72
2021/12/09 08:45:26;;;;;;;20.30;12.18;;;;;;;;;;4820921;29;20035;-70
2021/12/09 08:47:52;;;;;;;19.90;12.63;;;;;;;;;;4821593;29;20042;-71
2021/12/09 08:50:21;;;;;;;24.58;14.30;;;;;;;;;;4822699;29;20500;-71
2021/12/09 08:52:50;;;;;;;33.40;14.43;;;;;;;;;;4821631;29;20042;-71
2021/12/09 08:55:18;;;;;;;25.50;13.27;;;;;;;;;;4837068;29;20030;-71
2021/12/09 08:57:48;;;;;;;24.98;12.40;;;;;;;;;;4823143;29;20071;-71
2021/12/09 09:00:16;;;;;;;28.73;15.88;;;;;;;;;;4822550;29;20114;-72
2021/12/09 09:02:44;;;;;;;22.30;12.80;;;;;;;;;;4822174;29;20125;-71
2021/12/09 09:05:13;;;;;;;29.33;14.20;;;;;;;;;;4823231;29;20038;-68
2021/12/09 09:07:43;;;;;;;23.52;11.40;;;;;;;;;;4822836;29;20042;-70
2021/12/09 09:10:11;;;;;;;21.75;11.48;;;;;;;;;;4822828;29;20039;-70
2021/12/09 09:12:37;;;;;;;27.50;12.85;;;;;;;;;;4833988;29;20032;-73
2021/12/09 09:15:14;;;;;;;22.85;12.07;;;;;;;;;;4840986;29;20478;-74
2021/12/09 09:17:41;;;;;;;24.17;12.90;;;;;;;;;;4837533;29;20038;-72
2021/12/09 09:20:10;;;;;;;18.17;11.73;;;;;;;;;;4822858;29;20114;-73
2021/12/09 09:22:37;;;;;;;17.35;11.63;;;;;;;;;;4822824;29;20138;-73
2021/12/09 09:25:07;;;;;;;20.00;12.18;;;;;;;;;;4823307;29;20027;-71
2021/12/09 09:27:33;;;;;;;18.88;12.23;;;;;;;;;;4823113;29;20053;-74
2021/12/09 09:29:59;;;;;;;13.90;9.80;;;;;;;;;;4821946;29;20038;-71
2021/12/09 09:32:25;;;;;;;18.52;11.10;;;;;;;;;;4822996;29;20513;-71
2021/12/09 09:34:53;;;;;;;16.20;9.68;;;;;;;;;;4823214;29;20056;-72
2021/12/09 09:37:20;;;;;;;14.60;9.73;;;;;;;;;;4824428;29;20414;-73
2021/12/09 09:39:47;;;;;;;12.60;9.02;;;;;;;;;;4826388;29;20113;-73
2021/12/09 09:44:47;;;;;;;21.25;9.85;;;;;;;;;;4826339;29;20386;-68
2021/12/09 09:47:15;;;;;;;14.85;8.70;;;;;;;;;;4826340;29;20035;-71
2021/12/09 09:49:41;;;;;;;22.00;12.38;;;;;;;;;;4826405;29;20034;-70
2021/12/09 09:52:09;;;;;;;18.10;9.45;;;;;;;;;;4826047;29;20042;-71
2021/12/09 09:54:35;;;;;;;14.40;8.32;;;;;;;;;;4826339;29;20033;-69
2021/12/09 09:57:03;;;;;;;17.63;9.70;;;;;;;;;;4826346;29;20130;-72
2021/12/09 09:59:28;;;;;;;16.17;8.40;;;;;;;;;;4825710;29;20121;-71
2021/12/09 10:01:55;;;;;;;11.98;8.65;;;;;;;;;;4826003;29;20126;-69
2021/12/09 10:04:33;;;;;;;14.77;8.65;;;;;;;;;;4825661;29;20042;-71
2021/12/09 10:07:00;;;;;;;15.35;9.60;;;;;;;;;;4840110;29;20046;-72
2021/12/09 10:09:26;;;;;;;14.45;9.00;;;;;;;;;;4825943;29;20038;-72
2021/12/09 10:11:55;;;;;;;18.73;10.13;;;;;;;;;;4825265;29;20064;-71
2021/12/09 10:14:30;;;;;;;18.30;10.70;;;;;;;;;;4823521;29;20053;-72
2021/12/09 10:17:09;;;;;;;15.05;9.40;;;;;;;;;;4823784;29;20126;-70
2021/12/09 10:20:00;;;;;;;12.32;7.88;;;;;;;;;;4824548;29;20043;-70
2021/12/09 10:22:32;;;;;;;11.75;7.95;;;;;;;;;;4836472;29;20050;-70
2021/12/09 10:24:59;;;;;;;13.70;8.95;;;;;;;;;;4842469;29;20435;-71
2021/12/09 10:27:28;;;;;;;12.52;7.95;;;;;;;;;;4839056;29;20144;-72
2021/12/09 10:30:01;;;;;;;11.13;7.57;;;;;;;;;;4838819;29;20491;-73
2021/12/09 10:32:31;;;;;;;15.07;7.60;;;;;;;;;;4831273;29;20038;-72
2021/12/09 10:35:23;;;;;;;13.88;7.78;;;;;;;;;;4824639;29;20377;-70
2021/12/09 10:37:51;;;;;;;9.43;6.35;;;;;;;;;;4821961;29;20129;-71
2021/12/09 10:40:22;;;;;;;7.93;5.60;;;;;;;;;;4824309;29;20023;-71
2021/12/09 10:42:57;;;;;;;12.07;7.10;;;;;;;;;;4824129;29;20057;-70
2021/12/09 10:45:29;;;;;;;11.20;7.30;;;;;;;;;;4823391;29;20034;-72
2021/12/09 10:48:03;;;;;;;12.75;7.00;;;;;;;;;;4829211;29;20034;-73
2021/12/09 10:50:38;;;;;;;;;;;;;;;;;;4832064;29;20353;-70
2021/12/09 10:55:53;;;;;;;13.88;7.40;;;;;;;;;;4834325;29;20066;-71
2021/12/09 10:58:25;;;;;;;11.18;6.50;;;;;;;;;;4837071;29;20119;-72
2021/12/09 11:00:55;;;;;;;12.35;5.93;;;;;;;;;;4840668;29;20129;-72
2021/12/09 11:03:34;;;;;;;12.25;6.57;;;;;;;;;;4834663;29;20058;-72
2021/12/09 11:06:06;;;;;;;9.27;5.82;;;;;;;;;;4833784;29;20046;-73
2021/12/09 11:08:36;;;;;;;12.05;6.00;;;;;;;;;;4841965;29;20034;-72
2021/12/09 11:11:16;;;;;;;10.38;5.72;;;;;;;;;;4841650;29;20077;-72
2021/12/09 11:13:56;;;;;;;19.35;7.25;;;;;;;;;;4840331;29;20197;-73
2021/12/09 11:16:34;;;;;;;18.40;7.63;;;;;;;;;;4823787;29;20045;-70
2021/12/09 11:19:30;;;;;;;17.20;7.60;;;;;;;;;;4838226;29;20054;-71
2021/12/09 11:22:01;;;;;;;14.52;7.15;;;;;;;;;;4823790;29;20109;-72
2021/12/09 11:24:32;;;;;;;16.50;8.07;;;;;;;;;;4836610;29;20078;-70
2021/12/09 11:27:02;;;;;;;15.25;7.57;;;;;;;;;;4843262;29;20042;-72
2021/12/09 11:29:42;;;;;;;17.75;7.55;;;;;;;;;;4841536;29;20045;-70
2021/12/09 11:33:02;;;;;;;16.52;8.30;;;;;;;;;;4842960;29;20553;-72
2021/12/09 11:35:16;;;;;;;13.77;7.57;;;;;;;;;;4838957;29;20129;-72
2021/12/09 11:42:59;;;;;;;12.65;7.05;;;;;;;;;;4841592;29;20048;-71
2021/12/09 11:45:32;;;;;;;21.73;8.25;;;;;;;;;;4842616;29;20425;-70
2021/12/09 11:47:59;;;;;;;14.52;7.20;;;;;;;;;;4852828;29;20037;-71
2021/12/09 11:50:28;;;;;;;12.60;7.03;;;;;;;;;;4841110;29;20033;-71
2021/12/09 11:52:56;;;;;;;15.70;7.45;;;;;;;;;;4843686;29;20045;-69
2021/12/09 11:55:32;;;;;;;17.30;7.90;;;;;;;;;;4845643;29;20022;-70
2021/12/09 11:58:14;;;;;;;13.23;7.88;;;;;;;;;;4845621;29;20038;-71
2021/12/09 12:07:30;;;;;;;15.70;8.68;;;;;;;;;;4845285;29;20042;-72
2021/12/09 12:13:00;;;;;;;14.73;8.68;;;;;;;;;;4843939;29;20489;-72
2021/12/09 12:15:40;;;;;;;15.73;9.20;;;;;;;;;;4843040;29;20493;-73
2021/12/09 12:20:57;;;;;;;22.20;11.55;;;;;;;;;;4841876;29;20457;-72
2021/12/09 12:26:35;;;;;;;19.10;10.95;;;;;;;;;;4842063;29;20174;-70
2021/12/09 12:29:20;;;;;;;21.48;11.27;;;;;;;;;;4841741;29;20401;-72
2021/12/09 12:36:03;;;;;;;20.08;11.93;;;;;;;;;;4840816;29;20062;-72
2021/12/09 12:40:50;;;;;;;19.50;11.60;;;;;;;;;;4841473;29;20098;-71
2021/12/09 12:43:33;;;;;;;18.13;11.23;;;;;;;;;;4841956;29;20034;-72
2021/12/09 12:48:58;;;;;;;17.48;10.20;;;;;;;;;;4823299;29;20382;-72
2021/12/09 12:51:34;;;;;;;20.60;10.73;;;;;;;;;;4823389;29;20375;-70
2021/12/09 12:54:40;;;;;;;23.27;12.82;;;;;;;;;;4823234;29;20054;-74
2021/12/09 12:57:03;;;;;;;18.27;12.98;;;;;;;;;;4822730;29;20573;-71
2021/12/09 12:59:35;;;;;;;19.25;12.82;;;;;;;;;;4840819;29;20079;-72
2021/12/09 13:02:04;;;;;;;19.33;12.95;;;;;;;;;;4840898;29;20053;-70
2021/12/09 13:04:42;;;;;;;27.02;13.02;;;;;;;;;;4839719;29;20065;-69
2021/12/09 13:07:43;;;;;;;25.42;14.60;;;;;;;;;;4841018;29;20038;-71
2021/12/09 13:13:21;;;;;;;20.65;13.30;;;;;;;;;;4844172;29;20075;-72
2021/12/09 13:16:20;;;;;;;19.90;12.70;;;;;;;;;;4845289;29;20462;-72
2021/12/09 13:21:37;;;;;;;21.50;12.50;;;;;;;;;;4844860;29;20125;-70
2021/12/09 13:24:23;;;;;;;18.13;11.88;;;;;;;;;;4845211;29;20383;-73
2021/12/09 13:27:02;;;;;;;16.52;9.95;;;;;;;;;;4845011;29;20038;-70
2021/12/09 13:29:42;;;;;;;19.42;11.00;;;;;;;;;;4843540;29;20038;-70
2021/12/09 13:32:47;;;;;;;16.05;10.32;;;;;;;;;;4844875;29;20403;-73
2021/12/09 13:35:19;;;;;;;17.73;11.15;;;;;;;;;;4844676;29;20038;-71
2021/12/09 13:38:11;;;;;;;16.02;9.98;;;;;;;;;;4844759;29;20037;-70
2021/12/09 13:49:44;;;;;;;17.77;9.98;;;;;;;;;;4832960;29;20103;-71
2021/12/09 13:55:03;;;;;;;25.75;10.68;;;;;;;;;;4844776;29;20061;-71
2021/12/09 13:57:39;;;;;;;23.45;11.35;;;;;;;;;;4843972;29;20025;-74
2021/12/09 14:00:09;;;;;;;37.55;16.30;;;;;;;;;;4844345;29;20038;-72
2021/12/09 14:02:37;;;;;;;70.22;15.43;;;;;;;;;;4844366;29;20156;-72
2021/12/09 14:05:03;;;;;;;26.75;10.93;;;;;;;;;;4844821;29;20050;-73
2021/12/09 14:07:35;;;;;;;23.17;11.13;;;;;;;;;;4844473;29;20092;-72
2021/12/09 14:10:07;;;;;;;30.85;12.32;;;;;;;;;;4844306;29;20057;-73
2021/12/09 14:12:45;;;;;;;45.78;12.30;;;;;;;;;;4844551;29;20037;-72
2021/12/09 14:15:17;;;;;;;23.73;11.13;;;;;;;;;;4844858;29;20121;-73
2021/12/09 14:17:44;;;;;;;51.45;13.48;;;;;;;;;;4825915;29;20110;-76
2021/12/09 14:20:19;;;;;;;55.00;16.45;;;;;;;;;;4824671;29;20030;-74
2021/12/09 14:22:49;;;;;;;26.42;13.45;;;;;;;;;;4824290;29;20115;-71
2021/12/09 14:25:22;;;;;;;45.47;17.92;;;;;;;;;;4824525;29;20038;-74
2021/12/09 14:27:50;;;;;;;53.88;17.70;;;;;;;;;;4823772;29;20045;-74
2021/12/09 14:30:17;;;;;;;31.52;14.80;;;;;;;;;;4824631;29;20030;-76
2021/12/09 14:32:50;;;;;;;24.67;15.57;;;;;;;;;;4824769;29;20062;-76
2021/12/09 14:35:46;;;;;;;25.25;15.35;;;;;;;;;;4823458;29;20907;-72
2021/12/09 14:38:15;;;;;;;33.50;19.85;;;;;;;;;;4823516;29;20065;-73
2021/12/09 14:40:48;;;;;;;42.80;23.05;;;;;;;;;;4823763;29;20113;-74
2021/12/09 14:43:17;;;;;;;45.33;25.20;;;;;;;;;;4823514;29;20117;-72
2021/12/09 14:46:07;;;;;;;27.60;17.73;;;;;;;;;;4824596;29;20041;-71
2021/12/09 14:48:35;;;;;;;30.60;18.40;;;;;;;;;;4824443;29;20448;-73
2021/12/09 14:51:14;;;;;;;36.35;19.20;;;;;;;;;;4825154;29;20102;-71
2021/12/09 14:53:43;;;;;;;68.50;21.40;;;;;;;;;;4824993;29;20038;-73
2021/12/09 14:56:24;;;;;;;51.40;20.08;;;;;;;;;;4824443;29;20048;-72
2021/12/09 14:58:51;;;;;;;30.90;18.25;;;;;;;;;;4824236;29;20101;-72
2021/12/09 15:01:21;;;;;;;32.55;19.17;;;;;;;;;;4824071;29;20604;-71
2021/12/09 15:04:02;;;;;;;71.22;23.25;;;;;;;;;;4824014;29;20134;-72
2021/12/09 15:06:34;;;;;;;62.67;21.90;;;;;;;;;;4824399;29;20039;-71
2021/12/09 15:09:14;;;;;;;40.60;19.15;;;;;;;;;;4824003;29;20372;-71
2021/12/09 15:11:50;;;;;;;39.03;19.02;;;;;;;;;;4824628;29;20502;-72
2021/12/09 15:14:38;;;;;;;65.15;22.95;;;;;;;;;;4823065;29;20066;-71
2021/12/09 15:17:13;;;;;;;46.30;20.63;;;;;;;;;;4824556;29;20038;-72
2021/12/09 15:19:46;;;;;;;40.53;21.50;;;;;;;;;;4824078;29;20065;-70
2021/12/09 15:22:17;;;;;;;41.03;21.17;;;;;;;;;;4824191;29;20422;-71
2021/12/09 15:25:01;;;;;;;71.45;26.75;;;;;;;;;;4824182;29;20035;-71
2021/12/09 15:27:49;;;;;;;61.92;26.30;;;;;;;;;;4823665;29;20516;-70